Time;durP1;ratioP1;P1;durP2;ratioP2;P2;SDS_P1;SDS_P2;PMS_P1;PMS_P2;Temp;Humidity;BMP_temperature;BMP_pressure;BME280_temperature;BME280_humidity;BME280_pressure;Samples;Min_cycle;Max_cycle;Signal;HPM_P1;HPM_P2
2023/01/20 00:01:13;;;;;;;2.10;0.68;;;;;;;-0.42;100.00;100567.03;5060052;28;20079;-52
2023/01/20 00:03:40;;;;;;;0.77;0.30;;;;;;;-0.40;100.00;100572.94;5063780;28;20028;-53
2023/01/20 00:06:06;;;;;;;10.52;1.20;;;;;;;-0.24;100.00;100572.59;5059269;28;20424;-54
2023/01/20 00:08:32;;;;;;;2.75;0.20;;;;;;;-0.29;100.00;100565.13;5060550;28;20020;-52
2023/01/20 00:10:57;;;;;;;4.70;0.50;;;;;;;-0.47;100.00;100569.16;5057128;28;20063;-56
2023/01/20 00:13:23;;;;;;;2.50;0.47;;;;;;;-0.75;100.00;100571.28;5062590;28;20045;-55
2023/01/20 00:15:48;;;;;;;4.72;0.60;;;;;;;-0.89;100.00;100561.06;5074017;28;20103;-51
2023/01/20 00:18:14;;;;;;;1.60;0.20;;;;;;;-1.10;100.00;100566.09;5069343;28;20035;-52
2023/01/20 00:20:40;;;;;;;4.32;0.43;;;;;;;-1.16;100.00;100567.38;5071096;28;20041;-50
2023/01/20 00:23:05;;;;;;;2.75;0.45;;;;;;;-1.01;100.00;100567.16;5078744;28;20027;-51
2023/01/20 00:25:34;;;;;;;7.68;1.20;;;;;;;-0.88;100.00;100575.72;5073976;28;20032;-55
2023/01/20 00:28:00;;;;;;;3.55;0.60;;;;;;;-0.83;100.00;100575.38;5076987;28;20170;-57
2023/01/20 00:30:25;;;;;;;2.60;0.70;;;;;;;-0.58;100.00;100582.19;5067566;28;20486;-55
2023/01/20 00:32:51;;;;;;;5.47;0.70;;;;;;;-0.43;100.00;100581.00;5071817;28;20512;-51
2023/01/20 00:35:16;;;;;;;3.70;0.20;;;;;;;-0.45;100.00;100583.72;5065883;28;20047;-57
2023/01/20 00:37:42;;;;;;;4.00;0.52;;;;;;;-0.33;100.00;100579.34;5068665;28;20463;-53
2023/01/20 00:40:09;;;;;;;0.63;0.00;;;;;;;0.25;100.00;100586.16;5056414;28;20423;-55
2023/01/20 00:42:34;;;;;;;4.40;0.35;;;;;;;0.76;100.00;100582.94;5059283;28;20056;-53
2023/01/20 00:44:59;;;;;;;0.43;0.15;;;;;;;0.79;100.00;100575.66;5064111;28;20550;-51
2023/01/20 00:47:25;;;;;;;1.13;0.10;;;;;;;1.01;100.00;100569.53;5067394;28;20047;-54
2023/01/20 00:49:50;;;;;;;0.38;0.38;;;;;;;1.05;100.00;100562.25;5065390;28;20504;-52
2023/01/20 00:52:17;;;;;;;3.00;0.15;;;;;;;1.26;100.00;100560.44;5070599;28;20501;-54
2023/01/20 00:54:43;;;;;;;0.30;0.30;;;;;;;1.45;100.00;100557.13;5067888;28;20029;-53
2023/01/20 00:57:08;;;;;;;2.33;0.10;;;;;;;1.52;100.00;100563.50;5071119;28;20029;-56
2023/01/20 00:59:33;;;;;;;7.47;1.30;;;;;;;1.39;100.00;100564.66;5067521;28;20429;-54
2023/01/20 01:01:59;;;;;;;8.25;0.15;;;;;;;1.25;100.00;100564.03;5067560;28;20082;-55
2023/01/20 01:04:24;;;;;;;4.72;0.50;;;;;;;1.27;100.00;100563.91;5065988;28;20060;-50
2023/01/20 01:06:49;;;;;;;2.33;0.35;;;;;;;0.92;100.00;100578.09;5075322;28;20048;-51
2023/01/20 01:09:15;;;;;;;0.80;0.43;;;;;;;1.11;100.00;100572.22;5076114;28;20491;-54
2023/01/20 01:11:40;;;;;;;1.95;0.70;;;;;;;1.24;100.00;100566.75;5073062;28;20031;-52
2023/01/20 01:14:06;;;;;;;1.00;0.10;;;;;;;1.04;100.00;100566.66;5063715;28;20038;-53
2023/01/20 01:16:31;;;;;;;3.03;0.10;;;;;;;1.22;100.00;100572.13;5069141;28;20024;-53
2023/01/20 01:18:56;;;;;;;1.58;0.17;;;;;;;1.60;100.00;100575.91;5070734;28;20103;-52
2023/01/20 01:21:22;;;;;;;0.75;0.17;;;;;;;1.28;100.00;100574.22;5066258;28;20040;-52
2023/01/20 01:23:47;;;;;;;0.20;0.17;;;;;;;1.33;100.00;100565.19;5072512;28;20044;-55
2023/01/20 01:26:13;;;;;;;2.72;0.30;;;;;;;1.23;100.00;100568.56;5068423;28;20031;-52
2023/01/20 01:28:39;;;;;;;1.65;0.10;;;;;;;1.27;100.00;100576.97;5061139;28;20052;-53
2023/01/20 01:31:06;;;;;;;3.40;0.40;;;;;;;1.25;100.00;100574.47;5056466;28;20029;-51
2023/01/20 01:33:32;;;;;;;8.50;0.30;;;;;;;1.20;100.00;100587.09;5062767;28;20064;-56
2023/01/20 01:35:59;;;;;;;2.63;0.75;;;;;;;1.11;100.00;100580.03;5064258;28;20040;-54
2023/01/20 01:38:25;;;;;;;1.05;0.20;;;;;;;1.22;100.00;100586.97;5055713;28;20025;-52
2023/01/20 01:40:52;;;;;;;1.50;0.45;;;;;;;1.33;100.00;100591.31;5052125;28;20036;-50
2023/01/20 01:43:29;;;;;;;3.17;0.25;;;;;;;1.37;100.00;100587.47;5071718;28;20097;-55
2023/01/20 01:45:54;;;;;;;1.63;0.60;;;;;;;1.15;100.00;100581.44;5064805;28;20039;-55
2023/01/20 01:48:45;;;;;;;1.15;1.05;;;;;;;1.22;100.00;100589.59;5061865;28;20025;-53
2023/01/20 01:51:23;;;;;;;1.00;1.00;;;;;;;1.37;100.00;100593.53;5054193;28;20041;-52
2023/01/20 01:53:54;;;;;;;5.22;0.15;;;;;;;1.45;100.00;100596.34;5066176;28;20284;-53
2023/01/20 01:56:26;;;;;;;0.47;0.00;;;;;;;1.55;100.00;100593.78;5061795;28;20020;-52
2023/01/20 01:58:55;;;;;;;3.97;0.38;;;;;;;1.20;100.00;100602.78;5067184;28;20028;-53
2023/01/20 02:01:21;;;;;;;2.72;0.15;;;;;;;0.92;100.00;100612.03;5065087;28;20164;-52
2023/01/20 02:04:06;;;;;;;3.40;0.30;;;;;;;1.04;100.00;100616.28;5056945;28;21441;-51
2023/01/20 02:06:35;;;;;;;0.20;0.00;;;;;;;0.85;100.00;100627.41;5060819;28;20037;-51
2023/01/20 02:09:03;;;;;;;2.60;0.35;;;;;;;1.16;100.00;100618.81;5057604;28;20025;-55
2023/01/20 02:11:30;;;;;;;1.17;0.00;;;;;;;1.22;100.00;100623.56;5059460;28;20086;-54
2023/01/20 02:13:56;;;;;;;0.75;0.20;;;;;;;1.23;100.00;100633.84;5061992;28;20362;-52
2023/01/20 02:16:58;;;;;;;10.63;0.90;;;;;;;1.36;100.00;100625.00;5063253;28;20089;-53
2023/01/20 02:19:57;;;;;;;2.63;0.85;;;;;;;1.06;100.00;100640.47;5051576;28;20032;-56
2023/01/20 02:22:42;;;;;;;1.40;0.35;;;;;;;1.10;100.00;100646.28;5060110;28;20028;-53
2023/01/20 02:25:27;;;;;;;0.20;0.00;;;;;;;1.34;100.00;100651.25;5056827;28;20120;-52
2023/01/20 02:28:01;;;;;;;2.47;0.10;;;;;;;1.62;100.00;100646.34;5063931;28;20323;-53
2023/01/20 02:30:55;;;;;;;0.95;0.10;;;;;;;1.80;100.00;100641.34;5056758;28;20147;-51
2023/01/20 02:33:31;;;;;;;0.35;0.00;;;;;;;0.06;100.00;100658.03;5057548;28;20036;-54
2023/01/20 02:36:23;;;;;;;4.72;0.20;;;;;;;-0.48;100.00;100659.50;5059047;28;20251;-52
2023/01/20 02:38:48;;;;;;;;;;;;;;;-0.53;100.00;100672.03;5063325;28;20050;-55
2023/01/20 02:41:43;;;;;;;0.75;0.05;;;;;;;-0.54;100.00;100679.97;5060193;28;19916;-55
2023/01/20 02:44:36;;;;;;;0.35;0.15;;;;;;;-0.57;100.00;100685.41;5060126;28;20541;-54
2023/01/20 02:47:06;;;;;;;2.75;0.00;;;;;;;-0.59;100.00;100688.13;5064072;28;20079;-53
2023/01/20 02:49:44;;;;;;;2.42;0.20;;;;;;;-0.83;100.00;100690.75;5051443;28;20041;-50
2023/01/20 02:52:19;;;;;;;3.13;0.30;;;;;;;-0.58;100.00;100700.19;5059280;28;20029;-51
2023/01/20 02:54:50;;;;;;;3.03;0.20;;;;;;;-0.41;100.00;100703.31;5062125;28;20035;-51
2023/01/20 02:57:21;;;;;;;0.30;0.00;;;;;;;-0.53;100.00;100707.69;5061914;28;20386;-54
2023/01/20 02:59:52;;;;;;;0.45;0.00;;;;;;;-0.83;100.00;100702.94;5054131;28;20133;-55
2023/01/20 03:02:24;;;;;;;0.63;0.63;;;;;;;-1.03;100.00;100700.03;5063420;28;20075;-54
2023/01/20 03:04:58;;;;;;;5.82;0.20;;;;;;;-1.21;100.00;100710.00;5055867;28;20051;-51
2023/01/20 03:07:27;;;;;;;4.85;0.20;;;;;;;-1.22;100.00;100712.69;5060225;28;20024;-50
2023/01/20 03:09:56;;;;;;;2.53;0.50;;;;;;;-1.18;100.00;100716.75;5063534;28;20389;-53
2023/01/20 03:12:35;;;;;;;2.17;0.32;;;;;;;-1.07;100.00;100721.19;5065144;28;20029;-56
2023/01/20 03:15:01;;;;;;;1.65;0.22;;;;;;;-1.08;100.00;100719.50;5058949;28;20033;-57
2023/01/20 03:17:26;;;;;;;4.47;0.57;;;;;;;-0.89;100.00;100728.47;5065743;28;20170;-55
2023/01/20 03:19:52;;;;;;;2.30;0.20;;;;;;;-0.69;100.00;100713.19;5059556;28;20031;-55
2023/01/20 03:22:17;;;;;;;2.03;0.03;;;;;;;-0.77;100.00;100724.16;5068132;28;20043;-50
2023/01/20 03:24:46;;;;;;;2.17;0.20;;;;;;;-0.77;100.00;100720.75;5058656;28;20029;-55
2023/01/20 03:27:12;;;;;;;1.10;0.10;;;;;;;-0.64;100.00;100718.91;5070935;28;20021;-51
2023/01/20 03:29:38;;;;;;;0.98;0.35;;;;;;;-0.57;100.00;100716.66;5058282;28;20036;-51
2023/01/20 03:32:06;;;;;;;2.13;0.13;;;;;;;-0.56;100.00;100720.94;5068058;28;20419;-53
2023/01/20 03:34:34;;;;;;;1.42;0.38;;;;;;;-0.74;100.00;100718.72;5071650;28;20036;-52
2023/01/20 03:37:01;;;;;;;2.88;0.20;;;;;;;-0.62;100.00;100721.38;5070525;28;20028;-52
2023/01/20 03:39:27;;;;;;;1.33;0.30;;;;;;;-0.40;100.00;100723.22;5065204;28;20040;-50
2023/01/20 03:41:58;;;;;;;2.40;0.20;;;;;;;-0.26;100.00;100723.00;5063901;28;20213;-51
2023/01/20 03:44:45;;;;;;;1.00;0.00;;;;;;;-0.38;100.00;100724.78;5066182;28;20495;-56
2023/01/20 03:47:29;;;;;;;0.90;0.20;;;;;;;-0.31;100.00;100728.59;5058918;28;20036;-52
2023/01/20 03:50:02;;;;;;;1.20;0.15;;;;;;;-0.23;100.00;100735.84;5062623;28;20551;-55
2023/01/20 03:52:52;;;;;;;1.80;0.40;;;;;;;-0.27;100.00;100737.81;5063771;28;20074;-52
2023/01/20 03:55:42;;;;;;;2.55;1.13;;;;;;;-0.29;100.00;100747.53;5060741;28;20075;-55
2023/01/20 03:58:12;;;;;;;1.05;0.30;;;;;;;-0.30;100.00;100743.28;5056492;28;20025;-50
2023/01/20 04:00:45;;;;;;;0.88;0.13;;;;;;;-0.30;100.00;100745.88;5059509;28;20024;-55
2023/01/20 04:03:24;;;;;;;0.20;0.03;;;;;;;-0.47;100.00;100746.28;5062883;28;20062;-50
2023/01/20 04:05:51;;;;;;;2.60;0.17;;;;;;;-0.46;100.00;100750.56;5058491;28;20040;-54
2023/01/20 04:08:20;;;;;;;0.65;0.10;;;;;;;-0.49;100.00;100751.63;5071839;28;20423;-56
2023/01/20 04:10:47;;;;;;;5.50;0.25;;;;;;;-0.40;100.00;100760.53;5056686;28;20031;-57
2023/01/20 04:13:14;;;;;;;5.03;0.90;;;;;;;-0.34;100.00;100748.81;5058384;28;20676;-53
2023/01/20 04:15:45;;;;;;;5.55;0.45;;;;;;;-0.43;100.00;100749.53;5057926;28;20093;-52
2023/01/20 04:18:14;;;;;;;;;;;;;;;-0.37;100.00;100755.09;5070034;28;20576;-55
2023/01/20 04:20:41;;;;;;;1.00;0.32;;;;;;;-0.27;100.00;100760.47;5056451;28;19920;-56
2023/01/20 04:23:10;;;;;;;1.92;0.30;;;;;;;-0.26;100.00;100757.75;5057743;28;20470;-52
2023/01/20 04:25:35;;;;;;;1.25;0.20;;;;;;;-0.20;100.00;100766.06;5059715;28;20049;-50
2023/01/20 04:28:01;;;;;;;2.10;0.20;;;;;;;-0.10;100.00;100762.63;5071555;28;20075;-51
2023/01/20 04:30:26;;;;;;;4.18;0.30;;;;;;;-0.04;100.00;100763.94;5055511;28;20033;-53
2023/01/20 04:32:51;;;;;;;2.00;0.32;;;;;;;-0.11;100.00;100760.97;5058283;28;20021;-50
2023/01/20 04:35:18;;;;;;;1.45;0.10;;;;;;;0.64;100.00;100756.97;5056896;28;20025;-54
2023/01/20 04:37:44;;;;;;;1.15;0.38;;;;;;;1.00;100.00;100752.44;5068097;28;20473;-54
2023/01/20 04:40:10;;;;;;;1.63;0.45;;;;;;;1.14;100.00;100754.78;5058208;28;20039;-54
2023/01/20 04:42:35;;;;;;;5.75;0.63;;;;;;;1.23;100.00;100753.19;5073978;28;20020;-53
2023/01/20 04:45:01;;;;;;;2.50;0.43;;;;;;;1.14;100.00;100753.94;5066672;28;20029;-55
2023/01/20 04:47:30;;;;;;;1.13;0.60;;;;;;;0.98;100.00;100743.88;5074152;28;20149;-55
2023/01/20 04:49:56;;;;;;;0.20;0.00;;;;;;;1.05;100.00;100750.28;5061045;28;20398;-55
2023/01/20 04:52:21;;;;;;;0.50;0.00;;;;;;;1.13;100.00;100762.72;5074973;28;20039;-53
2023/01/20 04:54:46;;;;;;;4.40;0.22;;;;;;;0.97;100.00;100763.94;5062314;28;20029;-56
2023/01/20 04:57:12;;;;;;;3.20;0.30;;;;;;;0.84;100.00;100766.69;5063063;28;20036;-52
2023/01/20 04:59:37;;;;;;;1.40;0.15;;;;;;;0.94;100.00;100768.59;5058428;28;20029;-51
2023/01/20 05:02:02;;;;;;;5.90;0.80;;;;;;;0.98;100.00;100770.84;5061511;28;20033;-54
2023/01/20 05:04:28;;;;;;;4.53;0.68;;;;;;;1.14;100.00;100780.06;5054987;28;20025;-55
2023/01/20 05:06:53;;;;;;;1.67;0.45;;;;;;;0.99;100.00;100777.72;5057532;28;20035;-57
2023/01/20 05:09:18;;;;;;;2.53;0.20;;;;;;;0.68;100.00;100786.31;5061228;28;20055;-53
2023/01/20 05:11:44;;;;;;;0.63;0.25;;;;;;;0.76;100.00;100797.78;5066194;28;20028;-53
2023/01/20 05:14:10;;;;;;;1.85;0.28;;;;;;;0.85;100.00;100802.31;5056423;28;20033;-56
2023/01/20 05:16:36;;;;;;;0.00;0.00;;;;;;;0.94;100.00;100794.69;5055438;28;20075;-52
2023/01/20 05:19:01;;;;;;;1.55;0.20;;;;;;;0.76;100.00;100799.59;5057971;28;20056;-54
2023/01/20 05:21:27;;;;;;;5.72;0.65;;;;;;;0.67;100.00;100801.09;5057179;28;20341;-54
2023/01/20 05:23:53;;;;;;;2.35;0.20;;;;;;;0.81;100.00;100811.31;5068834;28;20025;-53
2023/01/20 05:26:19;;;;;;;2.83;0.32;;;;;;;0.89;100.00;100805.50;5054368;28;20037;-56
2023/01/20 05:28:45;;;;;;;0.40;0.00;;;;;;;1.16;100.00;100804.25;5064225;28;20094;-52
2023/01/20 05:31:10;;;;;;;0.05;0.00;;;;;;;1.31;100.00;100805.66;5068443;28;20063;-55
2023/01/20 05:33:38;;;;;;;0.70;0.10;;;;;;;1.36;100.00;100813.94;5061981;28;20486;-54
2023/01/20 05:36:08;;;;;;;1.00;0.63;;;;;;;1.22;100.00;100809.00;5058106;28;20204;-54
2023/01/20 05:38:34;;;;;;;0.40;0.05;;;;;;;1.11;100.00;100814.25;5060192;28;20523;-52
2023/01/20 05:41:05;;;;;;;2.38;0.20;;;;;;;1.10;100.00;100816.03;5063972;28;20032;-52
2023/01/20 05:43:30;;;;;;;2.83;0.15;;;;;;;1.25;100.00;100821.81;5064857;28;20063;-58
2023/01/20 05:45:56;;;;;;;2.25;0.10;;;;;;;1.14;100.00;100825.28;5063107;28;20051;-50
2023/01/20 05:48:22;;;;;;;0.30;0.00;;;;;;;1.16;100.00;100826.00;5055187;28;20040;-54
2023/01/20 05:50:47;;;;;;;0.95;0.10;;;;;;;1.13;100.00;100830.63;5060094;28;20045;-53
2023/01/20 05:53:13;;;;;;;5.35;0.05;;;;;;;1.07;100.00;100830.16;5056277;28;20060;-53
2023/01/20 05:55:39;;;;;;;0.25;0.05;;;;;;;0.81;100.00;100844.44;5056926;28;20028;-55
2023/01/20 05:58:05;;;;;;;0.68;0.17;;;;;;;0.54;100.00;100853.44;5063152;28;20043;-50
2023/01/20 06:00:31;;;;;;;0.00;0.00;;;;;;;0.49;100.00;100847.75;5060701;28;20515;-56
2023/01/20 06:02:57;;;;;;;0.75;0.52;;;;;;;0.54;100.00;100850.84;5059298;28;20115;-50
2023/01/20 06:05:22;;;;;;;1.15;0.00;;;;;;;0.38;100.00;100850.31;5059208;28;20025;-56
2023/01/20 06:07:48;;;;;;;0.45;0.00;;;;;;;0.27;100.00;100855.53;5064135;28;20056;-53
2023/01/20 06:10:14;;;;;;;0.38;0.10;;;;;;;0.16;100.00;100862.38;5065764;28;20028;-53
2023/01/20 06:12:40;;;;;;;0.15;0.10;;;;;;;0.16;100.00;100862.38;5061005;28;20040;-52
2023/01/20 06:15:05;;;;;;;3.83;0.00;;;;;;;0.02;100.00;100870.38;5066365;28;20485;-53
2023/01/20 06:17:31;;;;;;;1.50;0.00;;;;;;;-0.24;100.00;100867.91;5056462;28;20084;-55
2023/01/20 06:19:57;;;;;;;0.88;0.15;;;;;;;-0.33;100.00;100876.41;5051902;28;20079;-55
2023/01/20 06:22:22;;;;;;;3.85;0.10;;;;;;;-0.06;100.00;100878.75;5058749;28;20065;-55
2023/01/20 06:24:48;;;;;;;3.40;0.25;;;;;;;0.29;100.00;100880.53;5056423;28;20040;-50
2023/01/20 06:27:13;;;;;;;0.57;0.10;;;;;;;0.25;100.00;100886.09;5054050;28;20405;-55
2023/01/20 06:29:38;;;;;;;1.73;0.73;;;;;;;-0.12;100.00;100886.22;5056136;28;20354;-54
2023/01/20 06:32:04;;;;;;;1.10;0.00;;;;;;;-0.25;100.00;100874.06;5054258;28;20474;-56
2023/01/20 06:34:30;;;;;;;0.82;0.03;;;;;;;-0.33;100.00;100880.78;5050950;28;20040;-53
2023/01/20 06:36:56;;;;;;;4.38;0.10;;;;;;;-0.46;100.00;100886.88;5053148;28;20082;-56
2023/01/20 06:39:21;;;;;;;2.17;0.25;;;;;;;-0.54;100.00;100884.00;5058261;28;20037;-55
2023/01/20 06:41:47;;;;;;;1.08;0.10;;;;;;;-0.53;100.00;100887.41;5050700;28;20243;-52
2023/01/20 06:44:12;;;;;;;0.45;0.45;;;;;;;-0.68;100.00;100887.56;5056549;28;20485;-51
2023/01/20 06:46:38;;;;;;;8.23;0.40;;;;;;;-0.73;100.00;100894.84;5050429;28;20652;-55
2023/01/20 06:49:03;;;;;;;0.10;0.10;;;;;;;-0.88;100.00;100898.53;5053783;28;20329;-52
2023/01/20 06:51:30;;;;;;;0.95;0.10;;;;;;;-0.58;100.00;100902.53;5065871;28;20040;-53
2023/01/20 06:53:55;;;;;;;3.53;1.10;;;;;;;-0.28;100.00;100913.38;5063454;28;20074;-54
2023/01/20 06:56:22;;;;;;;2.85;0.10;;;;;;;0.02;100.00;100917.31;5055578;28;20501;-57
2023/01/20 06:58:47;;;;;;;0.93;0.10;;;;;;;-0.13;100.00;100919.28;5049316;28;20083;-52
2023/01/20 07:01:15;;;;;;;5.47;0.75;;;;;;;-0.18;100.00;100925.75;5059452;28;20090;-55
2023/01/20 07:03:42;;;;;;;0.93;0.93;;;;;;;-0.09;100.00;100931.13;5059544;28;20074;-55
2023/01/20 07:06:39;;;;;;;0.55;0.22;;;;;;;-0.25;100.00;100931.41;5066635;28;20037;-53
2023/01/20 07:09:07;;;;;;;2.10;0.43;;;;;;;-0.59;100.00;100919.13;5068732;28;20029;-53
2023/01/20 07:11:36;;;;;;;2.53;0.10;;;;;;;-0.62;100.00;100922.78;5059494;28;20061;-55
2023/01/20 07:14:02;;;;;;;0.10;0.10;;;;;;;-0.48;100.00;100924.41;5054218;28;20020;-57
2023/01/20 07:16:28;;;;;;;1.17;0.13;;;;;;;-0.45;100.00;100929.38;5067967;28;20070;-55
2023/01/20 07:18:54;;;;;;;0.70;0.13;;;;;;;-0.51;100.00;100935.88;5057303;28;20509;-51
2023/01/20 07:21:20;;;;;;;0.20;0.10;;;;;;;-0.51;100.00;100945.47;5053929;28;20123;-52
2023/01/20 07:23:46;;;;;;;3.05;0.20;;;;;;;-0.43;100.00;100944.91;5056498;28;20123;-55
2023/01/20 07:26:15;;;;;;;0.52;0.00;;;;;;;-0.17;100.00;100954.31;5054910;28;20046;-54
2023/01/20 07:28:40;;;;;;;1.38;0.00;;;;;;;-0.05;100.00;100943.00;5069128;28;20036;-53
2023/01/20 07:31:08;;;;;;;2.47;0.30;;;;;;;-0.48;100.00;100955.66;5062487;28;20092;-52
2023/01/20 07:33:35;;;;;;;0.22;0.00;;;;;;;-0.56;100.00;100965.78;5059467;28;20047;-53
2023/01/20 07:36:00;;;;;;;1.90;0.00;;;;;;;-0.15;100.00;100962.84;5063999;28;20055;-51
2023/01/20 07:38:26;;;;;;;6.10;0.35;;;;;;;0.08;100.00;100969.03;5068119;28;20072;-51
2023/01/20 07:40:52;;;;;;;1.20;0.20;;;;;;;0.04;100.00;100967.56;5066296;28;20560;-56
2023/01/20 07:43:17;;;;;;;0.32;0.10;;;;;;;-0.02;100.00;100962.81;5062588;28;20090;-53
2023/01/20 07:45:43;;;;;;;3.35;0.20;;;;;;;0.19;100.00;100976.88;5057504;28;20129;-55
2023/01/20 07:48:08;;;;;;;1.55;0.38;;;;;;;0.25;100.00;100985.22;5060699;28;20033;-51
2023/01/20 07:50:35;;;;;;;0.20;0.20;;;;;;;0.54;100.00;100989.13;5055082;28;20523;-54
2023/01/20 07:53:00;;;;;;;1.10;0.30;;;;;;;0.58;100.00;100985.34;5056669;28;20025;-54
2023/01/20 07:55:25;;;;;;;5.78;0.45;;;;;;;0.32;100.00;100984.66;5057716;28;20149;-50
2023/01/20 07:57:51;;;;;;;1.58;0.30;;;;;;;0.26;100.00;100984.25;5059577;28;20070;-52
2023/01/20 08:00:17;;;;;;;2.08;0.68;;;;;;;0.50;100.00;100985.06;5059906;28;20040;-57
2023/01/20 08:02:43;;;;;;;2.55;0.57;;;;;;;0.79;100.00;101001.16;5057703;28;20033;-51
2023/01/20 08:05:08;;;;;;;4.72;0.50;;;;;;;0.71;100.00;101005.31;5052479;28;20496;-56
2023/01/20 08:07:33;;;;;;;1.65;0.03;;;;;;;0.67;100.00;101009.09;5059101;28;20047;-53
2023/01/20 08:09:59;;;;;;;5.32;0.68;;;;;;;0.96;100.00;101009.53;5057601;28;20028;-55
2023/01/20 08:12:24;;;;;;;3.00;0.65;;;;;;;1.18;100.00;101009.53;5060271;28;20100;-52
2023/01/20 08:14:50;;;;;;;1.30;0.30;;;;;;;1.22;100.00;101008.38;5057437;28;20039;-52
2023/01/20 08:17:15;;;;;;;2.25;0.28;;;;;;;1.02;100.00;101012.50;5062266;28;20037;-55
2023/01/20 08:19:40;;;;;;;4.38;0.47;;;;;;;0.84;100.00;101019.94;5056287;28;20060;-51
2023/01/20 08:22:06;;;;;;;10.45;0.60;;;;;;;1.09;100.00;101013.69;5066052;28;20032;-51
2023/01/20 08:24:31;;;;;;;1.52;0.55;;;;;;;1.37;100.00;101022.06;5059618;28;20119;-51
2023/01/20 08:26:57;;;;;;;0.95;0.10;;;;;;;1.62;100.00;101020.97;5062331;28;20041;-50
2023/01/20 08:29:23;;;;;;;0.88;0.10;;;;;;;1.57;100.00;101024.88;5066360;28;20119;-54
2023/01/20 08:31:48;;;;;;;4.40;0.10;;;;;;;1.56;100.00;101028.47;5064090;28;20565;-51
2023/01/20 08:34:14;;;;;;;8.20;0.17;;;;;;;1.52;100.00;101039.16;5061843;28;20036;-51
2023/01/20 08:36:40;;;;;;;2.10;0.20;;;;;;;1.37;100.00;101036.88;5068626;28;20024;-52
2023/01/20 08:39:08;;;;;;;3.42;0.10;;;;;;;1.33;100.00;101041.50;5064815;28;20036;-52
2023/01/20 08:41:37;;;;;;;1.08;0.10;;;;;;;1.41;100.00;101035.69;5060117;28;20043;-49
2023/01/20 08:44:05;;;;;;;5.10;0.15;;;;;;;1.66;100.00;101047.72;5066754;28;20038;-51
2023/01/20 08:46:32;;;;;;;10.90;1.98;;;;;;;2.00;100.00;101043.28;5065657;28;20033;-52
2023/01/20 08:48:57;;;;;;;1.10;0.10;;;;;;;2.08;100.00;101042.66;5066198;28;20032;-55
2023/01/20 08:51:29;;;;;;;6.30;0.32;;;;;;;2.17;100.00;101037.53;5065632;28;20029;-52
2023/01/20 08:53:55;;;;;;;0.63;0.20;;;;;;;2.42;100.00;101053.03;5067053;28;20035;-52
2023/01/20 08:56:20;;;;;;;0.35;0.00;;;;;;;2.45;100.00;101048.38;5056689;28;20389;-54
2023/01/20 08:58:46;;;;;;;1.75;0.32;;;;;;;2.47;100.00;101048.25;5059583;28;20024;-55
2023/01/20 09:01:15;;;;;;;0.82;0.05;;;;;;;2.44;100.00;101049.34;5056709;28;20048;-54
2023/01/20 09:03:40;;;;;;;3.03;0.20;;;;;;;2.52;100.00;101046.09;5053636;28;20029;-54
2023/01/20 09:06:07;;;;;;;1.50;1.08;;;;;;;2.54;100.00;101049.44;5057553;28;20044;-50
2023/01/20 09:08:33;;;;;;;3.00;0.47;;;;;;;2.76;100.00;101051.09;5061542;28;20017;-49
2023/01/20 09:11:04;;;;;;;1.48;0.32;;;;;;;2.83;100.00;101047.03;5055809;28;20040;-53
2023/01/20 09:13:29;;;;;;;1.45;0.10;;;;;;;3.05;100.00;101048.72;5066672;28;20067;-53
2023/01/20 09:15:55;;;;;;;3.50;0.50;;;;;;;2.91;100.00;101044.59;5063159;28;20059;-54
2023/01/20 09:18:20;;;;;;;2.13;0.00;;;;;;;2.93;100.00;101044.50;5071927;28;20031;-55
2023/01/20 09:20:45;;;;;;;6.47;0.52;;;;;;;2.96;100.00;101046.84;5062752;28;20037;-54
2023/01/20 09:23:11;;;;;;;4.38;0.90;;;;;;;2.91;100.00;101051.63;5068639;28;20033;-50
2023/01/20 09:25:36;;;;;;;3.30;0.20;;;;;;;2.97;100.00;101045.88;5060872;28;20035;-50
2023/01/20 09:28:01;;;;;;;1.95;0.10;;;;;;;2.98;100.00;101043.13;5058974;28;20120;-51
2023/01/20 09:30:27;;;;;;;8.85;1.83;;;;;;;3.11;100.00;101042.13;5057451;28;20036;-54
2023/01/20 09:32:55;;;;;;;2.75;0.40;;;;;;;3.11;100.00;101042.94;5054201;28;20435;-51
2023/01/20 09:35:20;;;;;;;1.38;0.30;;;;;;;3.17;100.00;101046.84;5064245;28;20043;-52
2023/01/20 09:44:09;;;;;;;4.95;1.40;;;;;;;3.28;100.00;101052.84;5063184;28;20583;-50
2023/01/20 09:47:18;;;;;;;0.70;0.17;;;;;;;3.36;100.00;101056.63;5067067;28;20025;-54
2023/01/20 09:53:15;;;;;;;1.88;0.20;;;;;;;3.85;100.00;101071.59;5056032;28;20544;-55
2023/01/20 09:55:52;;;;;;;3.30;0.20;;;;;;;3.81;100.00;101067.56;5057495;28;20033;-51
2023/01/20 09:58:30;;;;;;;1.50;0.35;;;;;;;3.87;100.00;101082.78;5056032;28;20040;-52
2023/01/20 10:01:34;;;;;;;1.02;0.13;;;;;;;3.90;100.00;101086.94;5055026;28;20032;-54
2023/01/20 10:04:05;;;;;;;12.02;0.73;;;;;;;3.72;100.00;101084.13;5054587;28;20047;-53
2023/01/20 10:06:42;;;;;;;0.80;0.23;;;;;;;3.72;100.00;101090.19;5058091;28;20024;-52
2023/01/20 10:09:16;;;;;;;1.50;0.47;;;;;;;3.60;100.00;101098.25;5063089;28;20086;-52
2023/01/20 10:11:45;;;;;;;5.35;0.30;;;;;;;3.57;100.00;101107.22;5063776;28;20047;-51
2023/01/20 10:14:14;;;;;;;4.57;0.73;;;;;;;3.65;100.00;101094.28;5062513;28;20486;-52
2023/01/20 10:16:44;;;;;;;2.35;0.32;;;;;;;3.83;100.00;101097.13;5057435;28;20033;-51
2023/01/20 10:19:20;;;;;;;5.45;1.88;;;;;;;4.00;100.00;101098.31;5065450;28;20097;-50
2023/01/20 10:22:08;;;;;;;4.25;0.50;;;;;;;4.42;100.00;101099.94;5057481;28;20104;-55
2023/01/20 10:24:42;;;;;;;7.40;0.63;;;;;;;4.50;100.00;101100.91;5055151;28;20041;-51
2023/01/20 10:27:07;;;;;;;3.50;0.55;;;;;;;4.67;100.00;101109.88;5061005;28;20418;-54
2023/01/20 10:29:40;;;;;;;6.28;1.45;;;;;;;4.73;100.00;101105.91;5058665;28;20028;-49
2023/01/20 10:32:20;;;;;;;6.53;0.65;;;;;;;4.67;100.00;101111.69;5060399;28;20099;-49
2023/01/20 10:34:49;;;;;;;3.50;1.75;;;;;;;4.63;100.00;101111.16;5059327;28;20032;-50
2023/01/20 10:37:15;;;;;;;2.20;1.50;;;;;;;4.73;100.00;101119.88;5062965;28;20087;-51
2023/01/20 10:39:47;;;;;;;12.57;1.35;;;;;;;4.78;100.00;101115.03;5057869;28;20024;-48
2023/01/20 10:42:15;;;;;;;5.28;0.88;;;;;;;4.98;100.00;101130.78;5067387;28;20036;-49
2023/01/20 10:44:41;;;;;;;7.30;1.15;;;;;;;5.03;100.00;101123.31;5052662;28;20021;-51
2023/01/20 10:47:40;;;;;;;3.60;0.73;;;;;;;5.13;100.00;101115.44;5064108;28;20414;-52
2023/01/20 10:50:21;;;;;;;6.95;0.80;;;;;;;5.18;100.00;101118.47;5061692;28;20462;-50
2023/01/20 10:52:50;;;;;;;;;;;;;;;5.13;100.00;101116.25;5052973;28;20029;-53
2023/01/20 10:55:57;;;;;;;2.28;0.30;;;;;;;5.39;100.00;101118.28;5060845;28;20442;-51
2023/01/20 10:58:29;;;;;;;1.65;0.30;;;;;;;5.38;100.00;101117.47;5052968;28;20521;-50
2023/01/20 11:00:57;;;;;;;8.50;0.68;;;;;;;5.43;100.00;101130.19;5065925;28;20373;-49
2023/01/20 11:03:24;;;;;;;5.32;0.70;;;;;;;5.25;100.00;101122.19;5054917;28;20039;-50
2023/01/20 11:05:50;;;;;;;4.53;0.50;;;;;;;5.42;100.00;101124.13;5051334;28;20033;-49
2023/01/20 11:08:19;;;;;;;5.20;2.30;;;;;;;5.38;100.00;101120.09;5059205;28;21243;-51
2023/01/20 11:10:46;;;;;;;1.80;0.90;;;;;;;5.60;100.00;101126.84;5061658;28;20482;-53
2023/01/20 11:13:12;;;;;;;2.33;0.55;;;;;;;5.70;100.00;101118.91;5059846;28;20032;-51
2023/01/20 11:15:44;;;;;;;7.28;0.55;;;;;;;5.73;100.00;101129.16;5058816;28;20032;-51
2023/01/20 11:18:15;;;;;;;7.15;0.73;;;;;;;5.78;100.00;101126.94;5066105;28;20029;-52
2023/01/20 11:20:59;;;;;;;4.47;1.77;;;;;;;5.87;100.00;101117.31;5063774;28;20078;-50
2023/01/20 11:23:52;;;;;;;15.27;1.65;;;;;;;6.00;100.00;101125.75;5060744;28;20039;-52
2023/01/20 11:26:27;;;;;;;6.32;0.47;;;;;;;5.97;100.00;101128.69;5059492;28;20028;-51
2023/01/20 11:28:57;;;;;;;4.00;0.28;;;;;;;5.99;100.00;101128.50;5055157;28;20033;-48
2023/01/20 11:31:46;;;;;;;3.47;0.57;;;;;;;6.00;100.00;101124.94;5068492;28;20029;-52
2023/01/20 11:34:31;;;;;;;7.15;0.50;;;;;;;5.94;100.00;101114.97;5053871;28;20035;-53
2023/01/20 11:37:05;;;;;;;4.75;0.52;;;;;;;5.73;100.00;101110.75;5067667;28;20385;-52
2023/01/20 11:39:40;;;;;;;1.65;0.57;;;;;;;5.73;100.00;101121.25;5062085;28;20029;-52
2023/01/20 11:42:19;;;;;;;2.28;1.17;;;;;;;5.81;100.00;101117.91;5066076;28;20035;-52